Hauptseite
METAR-TAF:

METAR-TAF

Flughäfen :

Flughafen Curaçao

Curaçao, Niederländische Antillen

Breite: 12-12N, Länge: 068-58W, Höhe: 9 m

Beobachtung

Neuester Wetterbericht von vor 39 Minuten, um 20:00 UTC
Wind 11 kt aus Ost
Temperatur 28°C
Luftfeuchtigkeit 74%
Luftdruck 1012 hPa
Sichtweite 10 km oder mehr

METAR: TNCC 252000Z AUTO 10011KT 9999 ////// 28/23 Q1012

Zeit: 16:39 (20:39 UTC)

Prognose

Neuester Wetterbericht von vor 4 Stunden und 54 Minuten, um 15:45 UTC
Gültige Prognose vom 25 um 18 UTC bis 26 um 18 UTC
Wind 13 kt aus Ost
Sichtweite 10 km oder mehr
Aufgelockert bewölkt in der Höhe von 2000 ft
Zeitweise
vom 26 um 05 UTC bis 26 um 17 UTC
Durchbrochene Bewölkung in der Höhe von 1500 ft

TAF: TNCC 251545Z 2518/2618 10013KT 9999 SCT020 TEMPO 2605/2617 BKN015

Wetterbeobachtungen und Prognosen von mehr als 4000 Flughäfen (METAR und TAF Bericht).

Die verfügbaren Stationen werden durch gelbe und rote Markierungen auf der Karte dargestellt.

Führen Sie die Maus auf sie, um den Namen der Station zu sehen.

Darauf klicken, um die Beobachtung von Wetterbeobachtungen und Prognosen zu sehen.

Um die Karte zu ändern : klicken Sie auf den grünen Tasten mit einem schwarzen Kreuz Zum Vergrößern, auf den grünen Button mit einem Gedankenstrich zu verkleinern, oder auf die grünen Pfeile für benachbarte Karten.


METAR-TAF: